createdAt,value
2023-05-04T00:02:15.138Z,99914.07
2023-05-04T00:07:19.257Z,99905.80
2023-05-04T00:12:23.239Z,99909.77
2023-05-04T00:17:27.522Z,99914.10
2023-05-04T00:22:31.757Z,99918.16
2023-05-04T00:27:35.821Z,99915.16
2023-05-04T00:32:39.710Z,99916.36
2023-05-04T00:37:45.586Z,99915.80
2023-05-04T00:42:49.553Z,99913.71
2023-05-04T00:47:54.840Z,99912.09
2023-05-04T00:53:06.165Z,99908.91
2023-05-04T00:58:09.911Z,99905.80
2023-05-04T01:03:13.972Z,99909.52
2023-05-04T01:08:24.687Z,99913.14
2023-05-04T01:13:31.096Z,99913.39
2023-05-04T01:18:35.708Z,99909.96
2023-05-04T01:23:39.687Z,99912.02
2023-05-04T01:28:49.504Z,99916.00
2023-05-04T01:33:54.423Z,99913.88
2023-05-04T01:39:02.972Z,99907.16
2023-05-04T01:44:07.320Z,99909.14
2023-05-04T01:49:11.500Z,99906.67
2023-05-04T01:54:16.459Z,99903.27
2023-05-04T01:59:20.266Z,99903.89
2023-05-04T02:04:24.745Z,99904.84
2023-05-04T02:09:28.984Z,99906.90
2023-05-04T02:14:34.948Z,99903.58
2023-05-04T02:19:39.412Z,99902.14
2023-05-04T02:24:44.017Z,99896.35
2023-05-04T02:29:48.272Z,99897.19
2023-05-04T02:34:52.633Z,99894.08
2023-05-04T02:39:56.770Z,99897.31
2023-05-04T02:45:00.874Z,99896.96
2023-05-04T02:50:08.956Z,99891.96
2023-05-04T02:55:13.200Z,99885.39
2023-05-04T03:00:18.561Z,99881.92
2023-05-04T03:05:23.033Z,99881.67
2023-05-04T03:10:27.635Z,99887.80
2023-05-04T03:15:32.416Z,99892.80
2023-05-04T03:20:36.513Z,99893.98
2023-05-04T03:25:40.946Z,99895.40
2023-05-04T03:30:44.982Z,99902.69
2023-05-04T03:35:49.910Z,99904.32
2023-05-04T03:40:53.822Z,99905.73
2023-05-04T03:45:57.700Z,99902.23
2023-05-04T03:51:01.778Z,99900.34
2023-05-04T03:56:08.701Z,99900.64
2023-05-04T04:01:12.656Z,99898.58
2023-05-04T04:06:16.520Z,99900.83
2023-05-04T04:11:20.504Z,99898.20
2023-05-04T04:16:25.881Z,99903.67
2023-05-04T04:21:30.691Z,99899.45
2023-05-04T04:26:36.271Z,99897.44
2023-05-04T04:31:40.449Z,99897.14
2023-05-04T04:36:44.694Z,99905.48
2023-05-04T04:41:48.976Z,99911.41
2023-05-04T04:46:53.610Z,99912.88
2023-05-04T04:51:57.544Z,99917.39
2023-05-04T04:57:02.012Z,99925.85
2023-05-04T05:02:06.189Z,99931.92
2023-05-04T05:07:10.235Z,99938.67
2023-05-04T05:12:16.444Z,99932.80
2023-05-04T05:17:20.945Z,99945.39
2023-05-04T05:22:25.298Z,99944.39
2023-05-04T05:27:30.960Z,99949.09
2023-05-04T05:32:34.966Z,99948.86
2023-05-04T05:37:39.117Z,99946.23
2023-05-04T05:42:44.556Z,99954.05
2023-05-04T05:47:48.845Z,99951.80
2023-05-04T05:52:53.150Z,99947.27
2023-05-04T05:57:57.361Z,99948.15
2023-05-04T06:03:01.919Z,99943.83
2023-05-04T06:08:06.944Z,99951.42
2023-05-04T06:13:11.182Z,99949.14
2023-05-04T06:18:15.456Z,99954.09
2023-05-04T06:23:20.154Z,99954.20
2023-05-04T06:28:24.293Z,99951.82
2023-05-04T06:33:28.335Z,99949.12
2023-05-04T06:38:32.321Z,99945.96
2023-05-04T06:43:42.115Z,99943.48
2023-05-04T06:48:46.570Z,99943.23
2023-05-04T06:53:50.932Z,99943.30
2023-05-04T06:58:55.009Z,99944.84
2023-05-04T07:03:59.500Z,99943.24
2023-05-04T07:09:05.495Z,99940.10
2023-05-04T07:14:10.537Z,99937.55
2023-05-04T07:19:14.510Z,99944.47
2023-05-04T07:24:18.944Z,99938.17
2023-05-04T07:29:23.116Z,99933.73
2023-05-04T07:34:37.904Z,99938.98
2023-05-04T07:39:46.180Z,99940.71
2023-05-04T07:44:50.062Z,99940.83
2023-05-04T07:53:44.240Z,99938.06
2023-05-04T07:58:52.313Z,99939.41
2023-05-04T08:04:00.334Z,99944.15
2023-05-04T08:09:08.155Z,99947.45
2023-05-04T08:14:15.854Z,99950.14
2023-05-04T08:19:23.470Z,99949.36
2023-05-04T08:24:32.908Z,99939.43
2023-05-04T08:29:40.135Z,99941.04
2023-05-04T08:34:47.497Z,99940.79
2023-05-04T08:39:54.807Z,99944.96
2023-05-04T08:45:03.020Z,99947.52
2023-05-04T08:50:12.412Z,99945.61
2023-05-04T08:55:20.738Z,99942.86
2023-05-04T09:00:30.017Z,99948.96
2023-05-04T09:05:38.639Z,99946.85
2023-05-04T09:10:46.089Z,99944.30
2023-05-04T09:16:08.734Z,99933.11
2023-05-04T09:21:17.401Z,99931.45
2023-05-04T09:26:33.164Z,99937.02
2023-05-04T09:31:48.295Z,99933.34
2023-05-04T09:37:05.526Z,99935.36
2023-05-04T09:42:20.973Z,99934.75
2023-05-04T09:47:34.821Z,99933.92
2023-05-04T09:52:43.788Z,99930.55
2023-05-04T09:57:52.881Z,99932.20
2023-05-04T10:03:00.593Z,99922.17
2023-05-04T10:08:09.830Z,99915.98
2023-05-04T10:13:20.021Z,99914.14
2023-05-04T10:18:41.160Z,99906.59
2023-05-04T10:24:16.980Z,99903.63
2023-05-04T10:29:29.294Z,99891.00
2023-05-04T10:34:37.550Z,99886.52
2023-05-04T10:39:54.347Z,99883.61
2023-05-04T10:45:02.220Z,99888.05
2023-05-04T10:50:14.552Z,99887.84
2023-05-04T10:55:22.834Z,99881.52
2023-05-04T11:00:41.476Z,99880.11
2023-05-04T11:05:51.209Z,99872.29
2023-05-04T11:11:07.057Z,99873.28
2023-05-04T11:16:15.166Z,99870.44
2023-05-04T11:21:29.034Z,99860.32
2023-05-04T11:26:46.472Z,99853.61
2023-05-04T11:31:59.503Z,99849.15
2023-05-04T11:37:08.817Z,99846.95
2023-05-04T11:42:16.487Z,99839.64
2023-05-04T11:47:24.026Z,99837.23
2023-05-04T11:52:34.900Z,99830.58
2023-05-04T11:57:42.363Z,99830.34
2023-05-04T12:02:57.240Z,99828.16
2023-05-04T12:08:08.803Z,99825.83
2023-05-04T12:13:20.099Z,99827.02
2023-05-04T12:18:30.203Z,99821.38
2023-05-04T12:23:38.068Z,99820.95
2023-05-04T12:28:46.584Z,99813.78
2023-05-04T12:33:54.110Z,99813.67
2023-05-04T12:39:01.932Z,99813.27
2023-05-04T12:44:12.966Z,99806.28
2023-05-04T12:49:21.056Z,99798.77
2023-05-04T12:54:29.419Z,99792.25
2023-05-04T12:59:37.051Z,99795.59
2023-05-04T13:04:44.736Z,99790.44
2023-05-04T13:09:54.024Z,99794.62
2023-05-04T13:15:02.617Z,99786.89
2023-05-04T13:20:12.080Z,99789.33
2023-05-04T13:25:19.791Z,99782.59
2023-05-04T13:30:28.431Z,99773.02
2023-05-04T13:35:36.092Z,99766.91
2023-05-04T13:40:44.971Z,99747.79
2023-05-04T13:45:57.403Z,99744.53
2023-05-04T13:51:05.627Z,99743.52
2023-05-04T13:56:13.254Z,99735.05
2023-05-04T14:01:21.071Z,99724.70
2023-05-04T14:06:29.980Z,99712.34
2023-05-04T14:11:37.924Z,99714.43
2023-05-04T14:16:45.336Z,99712.91
2023-05-04T14:21:52.903Z,99707.84
2023-05-04T14:27:00.202Z,99707.56
2023-05-04T14:32:08.043Z,99704.46
2023-05-04T14:37:15.940Z,99704.53
2023-05-04T14:42:23.289Z,99698.30
2023-05-04T14:47:31.375Z,99696.41
2023-05-04T14:52:38.819Z,99691.08
2023-05-04T14:57:46.656Z,99692.60
2023-05-04T15:02:55.790Z,99687.62
2023-05-04T15:08:03.751Z,99686.83
2023-05-04T15:13:12.691Z,99692.85
2023-05-04T15:18:21.203Z,99694.83
2023-05-04T15:23:28.945Z,99690.05
2023-05-04T15:28:36.607Z,99687.20
2023-05-04T15:33:44.265Z,99682.69
2023-05-04T15:38:51.837Z,99681.25
2023-05-04T15:43:59.875Z,99679.06
2023-05-04T15:54:26.156Z,99662.67
2023-05-04T15:59:33.854Z,99663.33
2023-05-04T16:04:41.478Z,99659.73
2023-05-04T16:09:48.822Z,99657.54
2023-05-04T16:14:56.090Z,99657.66
2023-05-04T16:20:04.063Z,99654.08
2023-05-04T16:25:12.503Z,99648.80
2023-05-04T16:30:20.026Z,99646.41
2023-05-04T16:35:28.374Z,99642.17
2023-05-04T16:40:38.359Z,99647.27
2023-05-04T16:45:46.457Z,99644.92
2023-05-04T16:50:54.107Z,99637.66
2023-05-04T16:56:02.078Z,99636.23
2023-05-04T17:01:11.335Z,99641.25
2023-05-04T17:06:19.072Z,99640.02
2023-05-04T17:11:27.064Z,99641.33
2023-05-04T17:16:34.647Z,99639.77
2023-05-04T17:21:42.496Z,99637.34
2023-05-04T17:26:49.906Z,99643.19
2023-05-04T17:31:57.962Z,99646.33
2023-05-04T17:37:05.677Z,99650.21
2023-05-04T17:42:16.419Z,99656.52
2023-05-04T17:47:23.842Z,99656.70
2023-05-04T17:52:32.083Z,99655.59
2023-05-04T17:57:39.721Z,99660.66
2023-05-04T18:02:47.325Z,99653.99
2023-05-04T18:07:55.765Z,99659.17
2023-05-04T18:13:02.960Z,99665.55
2023-05-04T18:18:11.342Z,99671.16
2023-05-04T18:23:18.757Z,99678.45
2023-05-04T18:28:26.066Z,99689.36
2023-05-04T18:33:33.636Z,99697.36
2023-05-04T18:38:41.242Z,99703.58
2023-05-04T18:43:49.714Z,99701.42
2023-05-04T18:48:57.697Z,99705.39
2023-05-04T18:54:05.219Z,99699.00
2023-05-04T18:59:12.917Z,99700.16
2023-05-04T19:04:20.431Z,99693.39
2023-05-04T19:09:28.210Z,99689.27
2023-05-04T19:14:35.855Z,99692.22
2023-05-04T19:19:45.165Z,99695.69
2023-05-04T19:24:54.138Z,99690.87
2023-05-04T19:30:01.470Z,99693.06
2023-05-04T19:35:10.286Z,99697.70
2023-05-04T19:40:17.725Z,99689.70
2023-05-04T19:45:25.502Z,99692.68
2023-05-04T19:50:33.028Z,99691.22
2023-05-04T19:55:40.364Z,99692.97
2023-05-04T20:00:47.567Z,99689.88
2023-05-04T20:05:56.294Z,99684.11
2023-05-04T20:11:03.724Z,99673.34
2023-05-04T20:16:11.183Z,99666.15
2023-05-04T20:21:18.493Z,99668.64
2023-05-04T20:26:25.648Z,99670.48
2023-05-04T20:31:32.788Z,99664.66
2023-05-04T20:36:40.178Z,99665.07
2023-05-04T20:41:47.979Z,99661.31
2023-05-04T20:52:38.875Z,99651.09
2023-05-04T20:57:46.347Z,99650.02
2023-05-04T21:02:53.688Z,99649.27
2023-05-04T21:08:01.355Z,99649.44
2023-05-04T21:13:09.089Z,99649.14
2023-05-04T21:18:17.226Z,99647.39
2023-05-04T21:23:25.316Z,99644.94
2023-05-04T21:28:33.099Z,99646.02
2023-05-04T21:33:40.259Z,99641.89
2023-05-04T21:38:47.670Z,99633.23
2023-05-04T21:43:54.857Z,99634.53
2023-05-04T21:49:02.253Z,99631.46
2023-05-04T21:54:09.863Z,99632.38
2023-05-04T21:59:17.280Z,99633.11
2023-05-04T22:04:24.760Z,99627.87
2023-05-04T22:09:32.198Z,99625.02
2023-05-04T22:14:41.624Z,99627.58
2023-05-04T22:19:49.783Z,99623.90
2023-05-04T22:24:57.360Z,99625.73
2023-05-04T22:30:05.279Z,99624.41
2023-05-04T22:35:12.886Z,99624.92
2023-05-04T22:40:20.409Z,99618.09
2023-05-04T22:45:28.105Z,99616.73
2023-05-04T22:50:36.041Z,99613.40
2023-05-04T22:55:45.849Z,99610.09
2023-05-04T23:00:53.441Z,99610.70
2023-05-04T23:06:02.692Z,99608.31
2023-05-04T23:11:10.105Z,99607.80
2023-05-04T23:16:17.463Z,99600.42
2023-05-04T23:21:25.427Z,99594.03
2023-05-04T23:26:32.572Z,99593.31
2023-05-04T23:31:39.778Z,99591.22
2023-05-04T23:36:47.100Z,99586.98
2023-05-04T23:41:54.329Z,99589.11
2023-05-04T23:47:01.451Z,99585.15
2023-05-04T23:52:08.767Z,99585.30
2023-05-04T23:57:15.966Z,99585.52
